createdAt,value
2023-03-15T00:00:16.958Z,63.22
2023-03-15T00:01:16.952Z,63.22
2023-03-15T00:02:16.965Z,63.22
2023-03-15T00:03:17.003Z,63.22
2023-03-15T00:04:16.936Z,63.32
2023-03-15T00:05:16.929Z,63.22
2023-03-15T00:06:16.918Z,63.32
2023-03-15T00:07:16.933Z,63.32
2023-03-15T00:08:16.920Z,63.22
2023-03-15T00:09:16.913Z,63.22
2023-03-15T00:10:16.909Z,63.19
2023-03-15T00:11:16.937Z,63.32
2023-03-15T00:12:16.884Z,63.32
2023-03-15T00:13:16.882Z,63.22
2023-03-15T00:14:16.882Z,63.19
2023-03-15T00:15:16.872Z,63.32
2023-03-15T00:16:16.938Z,63.22
2023-03-15T00:17:16.887Z,63.22
2023-03-15T00:18:16.878Z,63.48
2023-03-15T00:19:16.870Z,63.42
2023-03-15T00:20:16.847Z,63.42
2023-03-15T00:21:16.876Z,63.42
2023-03-15T00:22:16.854Z,63.32
2023-03-15T00:23:16.862Z,63.29
2023-03-15T00:24:16.820Z,63.42
2023-03-15T00:25:16.835Z,63.42
2023-03-15T00:26:16.841Z,63.39
2023-03-15T00:27:16.811Z,63.32
2023-03-15T00:28:16.821Z,63.42
2023-03-15T00:29:16.805Z,63.42
2023-03-15T00:30:16.825Z,63.42
2023-03-15T00:31:16.927Z,63.70
2023-03-15T00:32:16.793Z,63.51
2023-03-15T00:33:16.794Z,63.29
2023-03-15T00:34:16.776Z,63.42
2023-03-15T00:35:16.801Z,63.39
2023-03-15T00:36:16.792Z,63.42
2023-03-15T00:37:16.762Z,63.67
2023-03-15T00:38:16.771Z,63.60
2023-03-15T00:39:16.788Z,63.67
2023-03-15T00:40:16.753Z,63.60
2023-03-15T00:41:16.742Z,63.60
2023-03-15T00:42:16.742Z,63.39
2023-03-15T00:43:16.747Z,62.90
2023-03-15T00:44:16.730Z,63.48
2023-03-15T00:45:16.726Z,63.42
2023-03-15T00:46:16.773Z,63.42
2023-03-15T00:47:16.714Z,63.48
2023-03-15T00:48:16.718Z,63.29
2023-03-15T00:49:16.713Z,63.32
2023-03-15T00:50:16.696Z,63.32
2023-03-15T00:51:16.707Z,63.57
2023-03-15T00:52:16.698Z,63.29
2023-03-15T00:53:16.704Z,63.10
2023-03-15T00:54:16.700Z,62.90
2023-03-15T00:55:16.712Z,62.90
2023-03-15T00:56:16.703Z,63.19
2023-03-15T00:57:16.675Z,62.81
2023-03-15T00:58:16.655Z,63.29
2023-03-15T00:59:16.655Z,63.19
2023-03-15T01:00:16.652Z,63.22
2023-03-15T01:01:16.661Z,63.29
2023-03-15T01:02:16.651Z,63.19
2023-03-15T01:03:16.737Z,63.19
2023-03-15T01:04:16.645Z,63.03
2023-03-15T01:05:16.636Z,63.03
2023-03-15T01:06:16.634Z,63.19
2023-03-15T01:07:16.647Z,63.00
2023-03-15T01:08:16.615Z,63.00
2023-03-15T01:09:16.623Z,63.10
2023-03-15T01:10:16.604Z,62.90
2023-03-15T01:11:16.624Z,63.10
2023-03-15T01:12:16.602Z,62.81
2023-03-15T01:13:16.601Z,63.00
2023-03-15T01:14:16.598Z,63.00
2023-03-15T01:15:16.589Z,63.00
2023-03-15T01:16:16.584Z,63.29
2023-03-15T01:17:16.569Z,63.00
2023-03-15T01:18:16.572Z,63.19
2023-03-15T01:19:16.560Z,63.19
2023-03-15T01:20:16.565Z,63.19
2023-03-15T01:21:16.553Z,63.19
2023-03-15T01:22:16.552Z,63.10
2023-03-15T01:23:16.552Z,63.19
2023-03-15T01:24:16.542Z,63.00
2023-03-15T01:25:16.549Z,63.00
2023-03-15T01:26:16.532Z,63.19
2023-03-15T01:27:16.558Z,62.90
2023-03-15T01:28:16.514Z,63.00
2023-03-15T01:29:16.528Z,63.19
2023-03-15T01:30:16.497Z,63.19
2023-03-15T01:31:16.529Z,63.19
2023-03-15T01:32:16.504Z,63.10
2023-03-15T01:33:16.504Z,63.10
2023-03-15T01:34:16.478Z,62.81
2023-03-15T01:35:16.481Z,62.71
2023-03-15T01:36:16.485Z,62.81
2023-03-15T01:37:16.480Z,63.19
2023-03-15T01:38:16.462Z,62.81
2023-03-15T01:39:16.461Z,62.90
2023-03-15T01:40:16.456Z,62.90
2023-03-15T01:41:16.458Z,62.90
2023-03-15T01:42:16.456Z,62.71
2023-03-15T01:43:16.475Z,62.90
2023-03-15T01:44:16.449Z,62.81
2023-03-15T01:45:16.461Z,62.90
2023-03-15T01:46:16.497Z,62.90
2023-03-15T01:47:16.440Z,63.00
2023-03-15T01:48:16.410Z,62.90
2023-03-15T01:49:16.424Z,63.10
2023-03-15T01:50:16.405Z,63.00
2023-03-15T01:51:16.407Z,62.81
2023-03-15T01:52:16.406Z,63.10
2023-03-15T01:53:16.409Z,62.81
2023-03-15T01:54:16.384Z,63.00
2023-03-15T01:55:16.381Z,62.81
2023-03-15T01:56:16.372Z,62.84
2023-03-15T01:57:16.371Z,62.81
2023-03-15T01:58:16.360Z,62.81
2023-03-15T01:59:16.383Z,62.81
2023-03-15T02:00:16.369Z,62.90
2023-03-15T02:01:16.524Z,63.00
2023-03-15T02:02:16.347Z,62.81
2023-03-15T02:03:16.390Z,62.81
2023-03-15T02:04:16.334Z,62.81
2023-03-15T02:05:16.338Z,62.62
2023-03-15T02:06:16.344Z,62.81
2023-03-15T02:07:16.344Z,62.81
2023-03-15T02:08:16.328Z,62.81
2023-03-15T02:09:16.319Z,63.19
2023-03-15T02:10:16.327Z,62.81
2023-03-15T02:11:16.324Z,63.00
2023-03-15T02:12:16.307Z,63.10
2023-03-15T02:13:16.294Z,63.00
2023-03-15T02:14:16.312Z,63.10
2023-03-15T02:15:16.314Z,62.81
2023-03-15T02:16:16.354Z,63.00
2023-03-15T02:17:16.274Z,62.81
2023-03-15T02:18:16.299Z,63.00
2023-03-15T02:19:16.283Z,63.00
2023-03-15T02:20:16.288Z,62.81
2023-03-15T02:21:16.252Z,63.00
2023-03-15T02:22:16.266Z,62.81
2023-03-15T02:23:16.285Z,62.52
2023-03-15T02:24:16.281Z,62.81
2023-03-15T02:25:16.250Z,63.19
2023-03-15T02:26:16.227Z,62.81
2023-03-15T02:27:16.327Z,63.00
2023-03-15T02:28:16.222Z,62.71
2023-03-15T02:29:16.229Z,63.00
2023-03-15T02:30:16.214Z,62.81
2023-03-15T02:31:16.289Z,62.90
2023-03-15T02:32:16.201Z,63.00
2023-03-15T02:33:16.216Z,62.81
2023-03-15T02:34:16.189Z,63.10
2023-03-15T02:35:16.196Z,63.19
2023-03-15T02:36:16.195Z,62.90
2023-03-15T02:37:16.196Z,63.10
2023-03-15T02:38:16.173Z,62.81
2023-03-15T02:39:16.173Z,62.81
2023-03-15T02:40:16.176Z,62.81
2023-03-15T02:41:16.171Z,63.00
2023-03-15T02:42:16.171Z,63.10
2023-03-15T02:43:16.144Z,63.00
2023-03-15T02:44:16.142Z,63.00
2023-03-15T02:45:16.141Z,62.90
2023-03-15T02:46:16.195Z,62.90
2023-03-15T02:47:16.138Z,63.00
2023-03-15T02:48:16.124Z,63.00
2023-03-15T02:49:16.131Z,62.90
2023-03-15T02:50:16.128Z,62.81
2023-03-15T02:51:16.110Z,62.90
2023-03-15T02:52:16.102Z,62.81
2023-03-15T02:53:16.135Z,62.90
2023-03-15T02:54:16.116Z,62.90
2023-03-15T02:55:16.133Z,62.62
2023-03-15T02:56:16.114Z,62.90
2023-03-15T02:57:16.075Z,63.00
2023-03-15T02:58:16.087Z,62.81
2023-03-15T02:59:16.095Z,62.90
2023-03-15T03:00:16.092Z,62.90
2023-03-15T03:01:16.217Z,62.81
2023-03-15T03:02:16.123Z,62.81
2023-03-15T03:03:16.074Z,62.90
2023-03-15T03:04:16.095Z,62.81
2023-03-15T03:05:16.052Z,62.90
2023-03-15T03:06:16.071Z,63.00
2023-03-15T03:07:16.039Z,62.81
2023-03-15T03:08:16.027Z,63.00
2023-03-15T03:09:16.048Z,62.90
2023-03-15T03:10:16.029Z,62.81
2023-03-15T03:11:16.018Z,62.81
2023-03-15T03:12:16.020Z,62.90
2023-03-15T03:13:15.994Z,62.81
2023-03-15T03:14:16.008Z,63.00
2023-03-15T03:15:16.010Z,63.10
2023-03-15T03:16:16.054Z,62.81
2023-03-15T03:17:15.976Z,63.10
2023-03-15T03:18:15.996Z,62.81
2023-03-15T03:19:15.981Z,62.81
2023-03-15T03:20:16.017Z,63.00
2023-03-15T03:21:15.972Z,63.10
2023-03-15T03:22:15.952Z,63.19
2023-03-15T03:23:15.951Z,63.10
2023-03-15T03:24:16.002Z,63.10
2023-03-15T03:25:15.933Z,63.19
2023-03-15T03:26:15.928Z,63.10
2023-03-15T03:27:15.916Z,63.10
2023-03-15T03:28:15.937Z,63.10
2023-03-15T03:29:15.927Z,63.19
2023-03-15T03:30:15.952Z,63.10
2023-03-15T03:31:15.923Z,62.71
2023-03-15T03:32:15.905Z,63.10
2023-03-15T03:33:15.904Z,63.10
2023-03-15T03:34:15.934Z,63.10
2023-03-15T03:35:16.288Z,63.10
2023-03-15T03:36:15.882Z,63.10
2023-03-15T03:37:15.879Z,63.10
2023-03-15T03:38:15.894Z,63.10
2023-03-15T03:39:15.892Z,63.10
2023-03-15T03:40:15.867Z,62.62
2023-03-15T03:41:15.851Z,62.62
2023-03-15T03:42:15.861Z,63.10
2023-03-15T03:43:15.865Z,63.10
2023-03-15T03:44:15.850Z,62.62
2023-03-15T03:45:15.835Z,62.52
2023-03-15T03:46:15.871Z,62.62
2023-03-15T03:47:15.848Z,62.62
2023-03-15T03:48:15.808Z,62.81
2023-03-15T03:49:15.806Z,62.90
2023-03-15T03:50:15.814Z,62.71
2023-03-15T03:51:15.829Z,63.10
2023-03-15T03:52:15.796Z,63.10
2023-03-15T03:53:15.790Z,62.90
2023-03-15T03:54:17.604Z,62.90
2023-03-15T03:55:15.770Z,62.90
2023-03-15T03:56:15.781Z,63.10
2023-03-15T03:57:15.762Z,63.10
2023-03-15T03:58:15.760Z,63.10
2023-03-15T03:59:15.765Z,62.90
2023-03-15T04:00:15.801Z,63.10
2023-03-15T04:01:15.745Z,63.00
2023-03-15T04:02:15.776Z,62.90
2023-03-15T04:03:15.731Z,62.90
2023-03-15T04:04:15.773Z,63.10
2023-03-15T04:05:15.761Z,63.00
2023-03-15T04:06:15.714Z,63.00
2023-03-15T04:07:17.087Z,62.81
2023-03-15T04:08:15.724Z,62.81
2023-03-15T04:09:15.701Z,63.00
2023-03-15T04:10:15.726Z,62.43
2023-03-15T04:11:15.691Z,62.81
2023-03-15T04:12:15.748Z,63.00
2023-03-15T04:13:15.693Z,62.71
2023-03-15T04:14:15.697Z,62.81
2023-03-15T04:15:15.681Z,62.90
2023-03-15T04:16:15.755Z,62.81
2023-03-15T04:17:15.672Z,62.71
2023-03-15T04:18:15.670Z,62.81
2023-03-15T04:19:15.657Z,62.97
2023-03-15T04:20:15.652Z,62.71
2023-03-15T04:21:15.650Z,62.90
2023-03-15T04:22:15.632Z,62.77
2023-03-15T04:23:15.749Z,62.59
2023-03-15T04:24:15.645Z,62.62
2023-03-15T04:25:15.625Z,62.77
2023-03-15T04:26:15.623Z,62.87
2023-03-15T04:27:15.637Z,62.49
2023-03-15T04:28:15.622Z,62.68
2023-03-15T04:29:15.599Z,62.71
2023-03-15T04:30:15.601Z,62.59
2023-03-15T04:31:15.610Z,62.71
2023-03-15T04:32:15.583Z,62.62
2023-03-15T04:33:15.599Z,62.49
2023-03-15T04:34:15.596Z,62.71
2023-03-15T04:35:15.566Z,62.52
2023-03-15T04:36:15.571Z,62.52
2023-03-15T04:37:15.564Z,62.59
2023-03-15T04:38:15.560Z,63.10
2023-03-15T04:39:15.572Z,62.68
2023-03-15T04:40:15.548Z,62.43
2023-03-15T04:41:15.543Z,62.59
2023-03-15T04:42:15.543Z,62.59
2023-03-15T04:43:15.548Z,62.59
2023-03-15T04:44:15.527Z,62.62
2023-03-15T04:45:15.536Z,62.68
2023-03-15T04:46:15.551Z,62.68
2023-03-15T04:47:15.517Z,62.62
2023-03-15T04:48:15.537Z,62.68
2023-03-15T04:49:15.519Z,62.68
2023-03-15T04:50:15.500Z,62.59
2023-03-15T04:51:15.495Z,62.71
2023-03-15T04:52:15.505Z,62.68
2023-03-15T04:53:15.480Z,62.49
2023-03-15T04:54:15.501Z,62.68
2023-03-15T04:55:15.502Z,62.59
2023-03-15T04:56:15.473Z,62.49
2023-03-15T04:57:15.465Z,62.59
2023-03-15T04:58:15.470Z,62.59
2023-03-15T04:59:15.455Z,62.59
2023-03-15T05:00:15.475Z,62.59
2023-03-15T05:01:15.484Z,62.40
2023-03-15T05:02:15.522Z,62.59
2023-03-15T05:03:15.427Z,62.68
2023-03-15T05:04:15.434Z,62.68
2023-03-15T05:05:15.416Z,62.68
2023-03-15T05:06:15.428Z,62.97
2023-03-15T05:07:15.419Z,62.49
2023-03-15T05:08:15.409Z,62.59
2023-03-15T05:09:15.419Z,62.59
2023-03-15T05:10:15.392Z,62.49
2023-03-15T05:11:15.403Z,62.68
2023-03-15T05:12:15.381Z,62.59
2023-03-15T05:13:15.389Z,62.68
2023-03-15T05:14:15.387Z,62.30
2023-03-15T05:15:15.520Z,62.49
2023-03-15T05:16:15.430Z,62.49
2023-03-15T05:17:15.409Z,62.59
2023-03-15T05:18:15.347Z,62.87
2023-03-15T05:19:15.357Z,62.59
2023-03-15T05:20:15.373Z,63.06
2023-03-15T05:21:15.347Z,62.59
2023-03-15T05:22:15.343Z,62.59
2023-03-15T05:23:15.332Z,62.59
2023-03-15T05:24:15.321Z,62.59
2023-03-15T05:25:15.334Z,62.59
2023-03-15T05:26:15.322Z,62.59
2023-03-15T05:27:15.335Z,62.40
2023-03-15T05:28:15.316Z,62.59
2023-03-15T05:29:15.306Z,62.97
2023-03-15T05:30:15.296Z,62.49
2023-03-15T05:31:15.302Z,62.49
2023-03-15T05:32:15.279Z,62.49
2023-03-15T05:33:15.290Z,62.30
2023-03-15T05:34:15.272Z,62.77
2023-03-15T05:35:15.259Z,62.40
2023-03-15T05:36:15.266Z,62.30
2023-03-15T05:37:15.247Z,62.11
2023-03-15T05:38:15.278Z,62.40
2023-03-15T05:39:15.250Z,62.20
2023-03-15T05:40:15.233Z,62.20
2023-03-15T05:41:15.229Z,62.49
2023-03-15T05:42:15.268Z,62.33
2023-03-15T05:43:15.292Z,62.52
2023-03-15T05:44:15.228Z,62.62
2023-03-15T05:45:15.206Z,62.33
2023-03-15T05:46:15.348Z,62.04
2023-03-15T05:47:15.193Z,62.14
2023-03-15T05:48:15.212Z,62.14
2023-03-15T05:49:15.197Z,61.94
2023-03-15T05:50:15.199Z,62.14
2023-03-15T05:51:15.205Z,62.43
2023-03-15T05:52:15.174Z,61.85
2023-03-15T05:53:15.179Z,61.76
2023-03-15T05:54:15.180Z,61.47
2023-03-15T05:55:15.168Z,62.04
2023-03-15T05:56:15.167Z,61.76
2023-03-15T05:57:15.156Z,61.66
2023-03-15T05:58:15.144Z,61.66
2023-03-15T05:59:15.164Z,61.79
2023-03-15T06:00:15.148Z,61.76
2023-03-15T06:01:15.124Z,61.31
2023-03-15T06:02:15.136Z,61.31
2023-03-15T06:03:15.159Z,61.40
2023-03-15T06:04:15.208Z,61.31
2023-03-15T06:05:15.102Z,61.50
2023-03-15T06:06:15.115Z,61.21
2023-03-15T06:07:15.107Z,61.21
2023-03-15T06:08:15.098Z,61.02
2023-03-15T06:09:15.086Z,60.93
2023-03-15T06:10:15.093Z,60.93
2023-03-15T06:11:15.086Z,60.64
2023-03-15T06:12:15.093Z,61.02
2023-03-15T06:13:17.807Z,60.93
2023-03-15T06:14:15.064Z,61.11
2023-03-15T06:15:15.089Z,61.11
2023-03-15T06:16:15.111Z,60.93
2023-03-15T06:17:15.064Z,60.93
2023-03-15T06:18:15.068Z,61.21
2023-03-15T06:19:15.051Z,61.21
2023-03-15T06:20:15.055Z,60.83
2023-03-15T06:21:15.036Z,61.02
2023-03-15T06:22:15.030Z,60.86
2023-03-15T06:23:15.025Z,60.96
2023-03-15T06:24:15.044Z,60.86
2023-03-15T06:25:15.023Z,60.86
2023-03-15T06:26:15.020Z,60.67
2023-03-15T06:27:15.006Z,61.05
2023-03-15T06:29:01.587Z,60.38
2023-03-15T06:30:01.599Z,60.09
2023-03-15T06:31:01.653Z,60.19
2023-03-15T06:32:01.591Z,60.38
2023-03-15T06:33:01.663Z,60.09
2023-03-15T06:34:01.590Z,60.00
2023-03-15T06:35:01.554Z,60.00
2023-03-15T06:36:01.588Z,60.00
2023-03-15T06:37:01.546Z,60.00
2023-03-15T06:38:01.562Z,59.90
2023-03-15T06:39:01.540Z,60.12
2023-03-15T06:40:01.549Z,60.22
2023-03-15T06:41:01.537Z,60.12
2023-03-15T06:42:01.538Z,60.22
2023-03-15T06:43:01.536Z,60.03
2023-03-15T06:44:01.538Z,60.03
2023-03-15T06:45:01.531Z,60.31
2023-03-15T06:46:01.576Z,60.12
2023-03-15T06:47:01.533Z,60.03
2023-03-15T06:48:01.502Z,60.41
2023-03-15T06:49:01.493Z,60.31
2023-03-15T06:50:01.511Z,60.31
2023-03-15T06:51:01.526Z,60.12
2023-03-15T06:52:01.489Z,60.22
2023-03-15T06:53:01.484Z,60.70
2023-03-15T06:54:01.498Z,60.41
2023-03-15T06:55:01.504Z,60.60
2023-03-15T06:56:01.484Z,60.96
2023-03-15T06:57:01.477Z,60.96
2023-03-15T06:58:01.467Z,60.89
2023-03-15T06:59:01.455Z,60.79
2023-03-15T07:00:01.461Z,60.79
2023-03-15T07:01:01.451Z,60.79
2023-03-15T07:02:01.461Z,60.89
2023-03-15T07:03:01.517Z,60.99
2023-03-15T07:04:01.455Z,61.27
2023-03-15T07:05:01.436Z,61.27
2023-03-15T07:06:01.436Z,61.05
2023-03-15T07:07:01.438Z,60.79
2023-03-15T07:08:01.456Z,61.05
2023-03-15T07:09:01.430Z,60.79
2023-03-15T07:10:01.423Z,60.99
2023-03-15T07:11:01.419Z,60.76
2023-03-15T07:12:01.463Z,61.05
2023-03-15T07:13:01.460Z,61.05
2023-03-15T07:14:01.415Z,61.43
2023-03-15T07:15:01.438Z,61.24
2023-03-15T07:16:01.478Z,61.15
2023-03-15T07:17:01.404Z,61.24
2023-03-15T07:18:01.405Z,61.63
2023-03-15T07:19:01.428Z,61.24
2023-03-15T07:20:01.382Z,61.34
2023-03-15T07:21:01.400Z,61.82
2023-03-15T07:22:01.384Z,61.82
2023-03-15T07:23:01.376Z,61.72
2023-03-15T07:24:01.379Z,61.91
2023-03-15T07:25:01.372Z,61.72
2023-03-15T07:26:01.370Z,61.91
2023-03-15T07:27:01.381Z,61.82
2023-03-15T07:28:01.345Z,61.91
2023-03-15T07:29:01.342Z,61.72
2023-03-15T07:30:01.385Z,61.91
2023-03-15T07:31:01.337Z,62.01
2023-03-15T07:32:01.445Z,61.91
2023-03-15T07:33:01.520Z,61.82
2023-03-15T07:34:01.318Z,62.20
2023-03-15T07:35:01.360Z,62.39
2023-03-15T07:36:01.390Z,62.10
2023-03-15T07:37:01.312Z,62.30
2023-03-15T07:38:01.311Z,62.10
2023-03-15T07:39:01.317Z,62.39
2023-03-15T07:40:01.300Z,62.17
2023-03-15T07:41:01.330Z,62.30
2023-03-15T07:42:01.290Z,62.17
2023-03-15T07:43:01.281Z,62.77
2023-03-15T07:44:01.273Z,62.46
2023-03-15T07:45:01.271Z,62.55
2023-03-15T07:46:01.286Z,62.65
2023-03-15T07:47:01.362Z,62.74
2023-03-15T07:48:01.263Z,61.98
2023-03-15T07:49:01.270Z,62.84
2023-03-15T07:50:01.246Z,62.84
2023-03-15T07:51:01.280Z,62.65
2023-03-15T07:52:01.275Z,62.84
2023-03-15T07:53:01.236Z,62.46
2023-03-15T07:54:01.231Z,62.46
2023-03-15T07:55:01.235Z,62.55
2023-03-15T07:56:01.227Z,62.65
2023-03-15T07:57:01.233Z,62.46
2023-03-15T07:58:01.210Z,62.46
2023-03-15T07:59:01.237Z,62.46
2023-03-15T08:00:01.222Z,62.46
2023-03-15T08:01:01.199Z,62.36
2023-03-15T08:02:02.953Z,62.46
2023-03-15T08:03:01.272Z,62.17
2023-03-15T08:04:01.194Z,62.65
2023-03-15T08:05:01.195Z,62.26
2023-03-15T08:06:01.177Z,62.36
2023-03-15T08:07:01.198Z,62.26
2023-03-15T08:08:01.182Z,62.17
2023-03-15T08:09:01.177Z,62.55
2023-03-15T08:10:01.161Z,62.55
2023-03-15T08:11:01.169Z,62.65
2023-03-15T08:12:01.150Z,62.55
2023-03-15T08:13:01.147Z,62.46
2023-03-15T08:14:01.140Z,62.74
2023-03-15T08:15:01.150Z,62.74
2023-03-15T08:16:01.198Z,62.74
2023-03-15T08:17:01.145Z,62.93
2023-03-15T08:18:01.140Z,62.93
2023-03-15T08:19:01.134Z,62.84
2023-03-15T08:20:01.144Z,62.84
2023-03-15T08:21:01.129Z,62.84
2023-03-15T08:22:01.175Z,63.03
2023-03-15T08:23:01.181Z,63.13
2023-03-15T08:24:01.156Z,63.13
2023-03-15T08:25:01.104Z,62.84
2023-03-15T08:26:01.081Z,62.93
2023-03-15T08:27:01.088Z,62.84
2023-03-15T08:28:01.099Z,63.13
2023-03-15T08:29:01.080Z,63.13
2023-03-15T08:30:01.071Z,62.65
2023-03-15T08:31:01.104Z,63.03
2023-03-15T08:32:01.237Z,62.81
2023-03-15T08:33:01.137Z,62.90
2023-03-15T08:34:01.060Z,62.90
2023-03-15T08:35:01.056Z,62.90
2023-03-15T08:36:01.076Z,63.00
2023-03-15T08:37:01.039Z,62.71
2023-03-15T08:38:01.032Z,62.81
2023-03-15T08:39:01.054Z,62.81
2023-03-15T08:40:01.028Z,63.10
2023-03-15T08:41:01.029Z,63.10
2023-03-15T08:42:01.026Z,63.19
2023-03-15T08:43:01.009Z,63.10
2023-03-15T08:44:01.017Z,63.10
2023-03-15T08:45:01.022Z,63.19
2023-03-15T08:46:01.992Z,63.00
2023-03-15T08:47:01.084Z,63.00
2023-03-15T08:48:01.001Z,62.81
2023-03-15T08:49:01.003Z,63.00
2023-03-15T08:50:00.985Z,63.10
2023-03-15T08:51:00.970Z,63.19
2023-03-15T08:52:00.972Z,63.19
2023-03-15T08:53:00.977Z,63.10
2023-03-15T08:54:00.988Z,62.90
2023-03-15T08:55:00.980Z,62.81
2023-03-15T08:56:00.980Z,63.48
2023-03-15T08:57:00.959Z,63.57
2023-03-15T08:58:00.946Z,63.67
2023-03-15T08:59:00.940Z,63.57
2023-03-15T09:00:00.920Z,63.67
2023-03-15T09:01:00.940Z,63.57
2023-03-15T09:02:01.100Z,63.48
2023-03-15T09:03:00.914Z,63.57
2023-03-15T09:04:00.936Z,63.57
2023-03-15T09:05:00.931Z,63.39
2023-03-15T09:06:00.898Z,63.48
2023-03-15T09:07:00.920Z,63.39
2023-03-15T09:08:00.890Z,63.39
2023-03-15T09:09:00.881Z,63.29
2023-03-15T09:10:02.426Z,63.39
2023-03-15T09:11:00.896Z,63.39
2023-03-15T09:12:00.888Z,63.29
2023-03-15T09:13:00.865Z,63.39
2023-03-15T09:14:00.864Z,63.10
2023-03-15T09:15:00.876Z,63.19
2023-03-15T09:16:00.860Z,63.29
2023-03-15T09:17:00.948Z,63.29
2023-03-15T09:18:00.843Z,63.39
2023-03-15T09:19:00.851Z,63.29
2023-03-15T09:20:00.832Z,63.19
2023-03-15T09:21:00.849Z,63.19
2023-03-15T09:22:15.946Z,63.29
2023-03-15T09:23:00.852Z,63.39
2023-03-15T09:24:00.840Z,63.19
2023-03-15T09:25:00.835Z,63.19
2023-03-15T09:26:00.805Z,63.29
2023-03-15T09:27:00.845Z,63.19
2023-03-15T09:28:00.808Z,63.10
2023-03-15T09:29:00.810Z,63.29
2023-03-15T09:30:00.819Z,63.29
2023-03-15T09:31:00.829Z,63.19
2023-03-15T09:32:00.788Z,63.29
2023-03-15T09:33:00.908Z,63.29
2023-03-15T09:34:00.795Z,63.29
2023-03-15T09:35:00.772Z,63.29
2023-03-15T09:36:00.810Z,63.29
2023-03-15T09:37:00.759Z,63.29
2023-03-15T09:38:00.762Z,63.29
2023-03-15T09:39:00.761Z,63.29
2023-03-15T09:40:00.777Z,63.29
2023-03-15T09:41:00.751Z,63.39
2023-03-15T09:42:00.759Z,63.19
2023-03-15T09:43:00.778Z,63.19
2023-03-15T09:44:00.736Z,63.29
2023-03-15T09:45:00.749Z,63.29
2023-03-15T09:46:00.789Z,63.39
2023-03-15T09:47:00.745Z,63.67
2023-03-15T09:48:00.707Z,63.39
2023-03-15T09:49:00.742Z,63.57
2023-03-15T09:50:00.728Z,63.76
2023-03-15T09:51:00.707Z,63.57
2023-03-15T09:52:00.692Z,63.67
2023-03-15T09:53:00.688Z,63.39
2023-03-15T09:54:00.709Z,63.76
2023-03-15T09:55:00.692Z,63.48
2023-03-15T09:56:00.693Z,63.57
2023-03-15T09:57:00.678Z,63.76
2023-03-15T09:58:00.681Z,63.67
2023-03-15T09:59:00.681Z,63.48
2023-03-15T10:00:00.698Z,63.67
2023-03-15T10:01:00.650Z,63.57
2023-03-15T10:02:00.697Z,63.67
2023-03-15T10:03:00.654Z,63.67
2023-03-15T10:04:00.712Z,63.67
2023-03-15T10:05:00.637Z,63.67
2023-03-15T10:06:00.647Z,63.48
2023-03-15T10:07:00.630Z,63.67
2023-03-15T10:08:00.629Z,63.76
2023-03-15T10:09:00.630Z,63.67
2023-03-15T10:10:00.625Z,63.76
2023-03-15T10:11:00.610Z,63.67
2023-03-15T10:12:00.616Z,63.67
2023-03-15T10:13:00.609Z,63.67
2023-03-15T10:14:00.620Z,63.67
2023-03-15T10:15:00.627Z,63.76
2023-03-15T10:16:00.647Z,63.67
2023-03-15T10:17:00.589Z,63.39
2023-03-15T10:18:00.568Z,63.67
2023-03-15T10:19:00.577Z,63.48
2023-03-15T10:20:00.558Z,63.48
2023-03-15T10:21:00.575Z,63.39
2023-03-15T10:22:00.557Z,63.67
2023-03-15T10:23:00.573Z,63.76
2023-03-15T10:24:00.538Z,63.67
2023-03-15T10:25:00.568Z,63.67
2023-03-15T10:26:00.533Z,63.67
2023-03-15T10:27:00.551Z,63.76
2023-03-15T10:28:00.552Z,63.76
2023-03-15T10:29:00.519Z,63.48
2023-03-15T10:30:00.526Z,63.39
2023-03-15T10:31:00.619Z,63.39
2023-03-15T10:32:00.549Z,63.48
2023-03-15T10:33:00.617Z,63.57
2023-03-15T10:34:00.489Z,63.48
2023-03-15T10:35:00.494Z,63.57
2023-03-15T10:36:10.721Z,63.57
2023-03-15T10:37:00.490Z,63.57
2023-03-15T10:38:00.470Z,63.57
2023-03-15T10:39:00.477Z,63.67
2023-03-15T10:40:00.483Z,63.57
2023-03-15T10:41:00.471Z,63.57
2023-03-15T10:42:00.467Z,63.39
2023-03-15T10:43:00.462Z,63.57
2023-03-15T10:44:00.439Z,63.48
2023-03-15T10:45:00.447Z,63.48
2023-03-15T10:46:00.436Z,63.57
2023-03-15T10:47:03.015Z,63.57
2023-03-15T10:48:01.166Z,63.67
2023-03-15T10:49:00.442Z,63.54
2023-03-15T10:50:00.424Z,63.39
2023-03-15T10:51:00.456Z,63.48
2023-03-15T10:52:00.400Z,63.54
2023-03-15T10:53:00.420Z,63.64
2023-03-15T10:54:00.394Z,63.57
2023-03-15T10:55:04.400Z,63.48
2023-03-15T10:56:00.413Z,63.57
2023-03-15T10:57:00.400Z,63.48
2023-03-15T10:58:00.411Z,63.57
2023-03-15T10:59:11.848Z,63.57
2023-03-15T11:00:00.377Z,63.57
2023-03-15T11:01:00.374Z,63.67
2023-03-15T11:02:00.389Z,63.57
2023-03-15T11:03:00.426Z,63.57
2023-03-15T11:04:00.354Z,63.57
2023-03-15T11:05:00.356Z,63.57
2023-03-15T11:06:00.344Z,63.57
2023-03-15T11:07:00.335Z,63.48
2023-03-15T11:08:00.329Z,63.57
2023-03-15T11:09:00.335Z,63.57
2023-03-15T11:10:00.330Z,63.57
2023-03-15T11:11:00.332Z,63.39
2023-03-15T11:12:00.323Z,63.57
2023-03-15T11:13:00.318Z,63.67
2023-03-15T11:14:00.303Z,63.67
2023-03-15T11:15:00.329Z,63.67
2023-03-15T11:16:00.436Z,63.67
2023-03-15T11:17:00.336Z,63.57
2023-03-15T11:18:00.293Z,63.67
2023-03-15T11:19:00.299Z,63.67
2023-03-15T11:20:00.292Z,63.67
2023-03-15T11:21:00.273Z,63.39
2023-03-15T11:22:00.262Z,63.67
2023-03-15T11:23:00.268Z,63.67
2023-03-15T11:24:00.250Z,63.64
2023-03-15T11:25:00.332Z,63.57
2023-03-15T11:26:00.245Z,63.54
2023-03-15T11:27:00.242Z,63.48
2023-03-15T11:28:00.244Z,63.57
2023-03-15T11:29:00.250Z,63.57
2023-03-15T11:30:00.229Z,63.57
2023-03-15T11:31:00.242Z,63.57
2023-03-15T11:32:00.217Z,63.57
2023-03-15T11:33:00.296Z,63.57
2023-03-15T11:34:00.216Z,63.57
2023-03-15T11:35:00.234Z,63.67
2023-03-15T11:36:00.301Z,63.57
2023-03-15T11:37:07.896Z,63.67
2023-03-15T11:38:12.863Z,63.48
2023-03-15T11:39:02.856Z,63.57
2023-03-15T11:40:10.518Z,63.67
2023-03-15T11:41:00.179Z,63.57
2023-03-15T11:42:00.191Z,63.57
2023-03-15T11:43:00.184Z,63.57
2023-03-15T11:44:00.173Z,63.57
2023-03-15T11:45:00.169Z,63.39
2023-03-15T11:46:00.275Z,63.45
2023-03-15T11:47:00.164Z,63.39
2023-03-15T11:48:00.169Z,63.39
2023-03-15T11:49:00.138Z,63.39
2023-03-15T11:50:00.154Z,63.48
2023-03-15T11:51:00.171Z,63.76
2023-03-15T11:52:00.177Z,63.48
2023-03-15T11:53:00.133Z,63.57
2023-03-15T11:54:00.129Z,63.48
2023-03-15T11:55:00.136Z,63.86
2023-03-15T11:56:00.119Z,63.86
2023-03-15T11:57:00.095Z,63.57
2023-03-15T11:58:00.120Z,63.86
2023-03-15T11:59:01.109Z,63.39
2023-03-15T12:00:00.209Z,63.57
2023-03-15T12:01:00.100Z,63.48
2023-03-15T12:02:00.245Z,63.57
2023-03-15T12:03:00.124Z,63.76
2023-03-15T12:04:00.089Z,63.39
2023-03-15T12:05:09.137Z,63.39
2023-03-15T12:06:00.096Z,63.39
2023-03-15T12:07:00.089Z,63.39
2023-03-15T12:08:00.063Z,63.57
2023-03-15T12:09:00.068Z,63.57
2023-03-15T12:10:00.047Z,63.39
2023-03-15T12:11:00.034Z,63.57
2023-03-15T12:12:00.044Z,63.57
2023-03-15T12:13:00.042Z,63.57
2023-03-15T12:14:00.036Z,63.57
2023-03-15T12:15:00.114Z,63.48
2023-03-15T12:16:00.021Z,63.48
2023-03-15T12:17:00.086Z,63.57
2023-03-15T12:18:00.058Z,63.76
2023-03-15T12:19:00.021Z,63.76
2023-03-15T12:19:59.995Z,63.76
2023-03-15T12:20:59.999Z,63.39
2023-03-15T12:22:00.004Z,63.48
2023-03-15T12:23:00.026Z,63.39
2023-03-15T12:23:59.995Z,63.39
2023-03-15T12:24:59.984Z,63.57
2023-03-15T12:25:59.977Z,63.57
2023-03-15T12:26:59.961Z,63.48
2023-03-15T12:27:59.976Z,63.57
2023-03-15T12:28:59.964Z,63.48
2023-03-15T12:29:59.954Z,63.67
2023-03-15T12:30:59.991Z,63.76
2023-03-15T12:31:59.966Z,63.67
2023-03-15T12:32:59.944Z,63.57
2023-03-15T12:33:59.938Z,63.67
2023-03-15T12:34:59.912Z,63.67
2023-03-15T12:35:59.970Z,63.48
2023-03-15T12:36:59.915Z,63.48
2023-03-15T12:37:59.921Z,63.48
2023-03-15T12:38:59.934Z,63.67
2023-03-15T12:39:59.920Z,63.67
2023-03-15T12:40:59.905Z,63.76
2023-03-15T12:41:59.902Z,63.67
2023-03-15T12:42:59.885Z,63.67
2023-03-15T12:43:59.894Z,63.76
2023-03-15T12:44:59.908Z,63.67
2023-03-15T12:45:59.887Z,63.76
2023-03-15T12:46:59.869Z,63.67
2023-03-15T12:47:59.870Z,63.76
2023-03-15T12:48:59.864Z,63.48
2023-03-15T12:49:59.862Z,63.76
2023-03-15T12:50:59.857Z,63.39
2023-03-15T12:51:59.856Z,63.57
2023-03-15T12:52:59.839Z,63.67